createdAt,value
2022-08-19T00:02:10.837Z,3.17
2022-08-19T00:04:41.776Z,2.78
2022-08-19T00:07:11.328Z,2.28
2022-08-19T00:09:38.173Z,2.30
2022-08-19T00:12:05.443Z,2.33
2022-08-19T00:14:33.058Z,4.13
2022-08-19T00:17:00.954Z,2.95
2022-08-19T00:19:27.999Z,2.17
2022-08-19T00:21:57.186Z,9.98
2022-08-19T00:24:24.400Z,1.95
2022-08-19T00:26:51.639Z,1.80
2022-08-19T00:29:22.272Z,1.83
2022-08-19T00:31:51.385Z,2.50
2022-08-19T00:34:18.469Z,1.90
2022-08-19T00:36:45.990Z,3.65
2022-08-19T00:39:14.785Z,2.03
2022-08-19T00:41:42.903Z,2.05
2022-08-19T00:44:20.968Z,2.55
2022-08-19T00:46:55.296Z,2.30
2022-08-19T00:49:28.837Z,2.80
2022-08-19T00:52:05.314Z,2.08
2022-08-19T00:54:41.067Z,2.45
2022-08-19T00:57:15.932Z,4.50
2022-08-19T01:00:00.849Z,2.63
2022-08-19T01:02:32.110Z,2.45
2022-08-19T01:05:02.883Z,2.95
2022-08-19T01:07:35.741Z,3.15
2022-08-19T01:10:15.186Z,2.90
2022-08-19T01:12:42.173Z,3.05
2022-08-19T01:15:13.970Z,2.42
2022-08-19T01:17:42.935Z,3.78
2022-08-19T01:20:18.548Z,3.08
2022-08-19T01:22:49.579Z,4.45
2022-08-19T01:25:21.144Z,2.40
2022-08-19T01:27:52.101Z,2.45
2022-08-19T01:30:35.023Z,2.53
2022-08-19T01:33:05.980Z,3.10
2022-08-19T01:35:33.419Z,2.15
2022-08-19T01:38:11.352Z,4.03
2022-08-19T01:40:40.948Z,2.30
2022-08-19T01:43:07.920Z,2.63
2022-08-19T01:45:36.605Z,2.33
2022-08-19T01:48:05.030Z,2.17
2022-08-19T01:50:34.711Z,2.47
2022-08-19T01:53:07.620Z,4.72
2022-08-19T01:55:41.558Z,3.35
2022-08-19T01:58:22.038Z,2.50
2022-08-19T02:00:49.835Z,2.63
2022-08-19T02:03:17.754Z,2.70
2022-08-19T02:05:46.828Z,2.22
2022-08-19T02:08:13.734Z,2.10
2022-08-19T02:10:44.693Z,2.40
2022-08-19T02:13:14.274Z,2.25
2022-08-19T02:15:43.124Z,2.75
2022-08-19T02:18:09.977Z,2.28
2022-08-19T02:20:39.527Z,2.78
2022-08-19T02:23:13.831Z,2.38
2022-08-19T02:25:45.869Z,4.10
2022-08-19T02:28:15.586Z,5.53
2022-08-19T02:30:47.568Z,2.40
2022-08-19T02:33:17.387Z,4.07
2022-08-19T02:35:46.786Z,3.00
2022-08-19T02:38:26.667Z,3.33
2022-08-19T02:41:01.334Z,5.63
2022-08-19T02:43:33.907Z,3.45
2022-08-19T02:46:02.987Z,3.15
2022-08-19T02:48:29.737Z,3.05
2022-08-19T02:50:56.637Z,2.53
2022-08-19T02:53:27.865Z,3.30
2022-08-19T02:55:54.662Z,2.80
2022-08-19T02:58:22.646Z,4.03
2022-08-19T03:00:54.738Z,4.38
2022-08-19T03:03:22.188Z,2.70
2022-08-19T03:05:56.146Z,2.53
2022-08-19T03:08:25.153Z,3.75
2022-08-19T03:10:53.777Z,3.05
2022-08-19T03:13:20.688Z,2.72
2022-08-19T03:15:48.987Z,3.30
2022-08-19T03:18:18.062Z,3.20
2022-08-19T03:20:49.095Z,2.97
2022-08-19T03:23:17.881Z,3.78
2022-08-19T03:25:58.304Z,3.35
2022-08-19T03:28:36.399Z,4.75
2022-08-19T03:31:45.158Z,3.80
2022-08-19T03:33:56.377Z,4.15
2022-08-19T03:36:29.483Z,3.40
2022-08-19T03:39:01.947Z,5.18
2022-08-19T03:41:44.656Z,3.72
2022-08-19T03:44:17.952Z,3.85
2022-08-19T03:46:48.540Z,3.50
2022-08-19T03:49:27.110Z,4.38
2022-08-19T03:51:58.956Z,3.13
2022-08-19T03:54:27.258Z,3.70
2022-08-19T03:56:56.968Z,4.00
2022-08-19T03:59:33.007Z,3.13
2022-08-19T04:02:06.156Z,3.53
2022-08-19T04:04:32.910Z,2.72
2022-08-19T04:06:59.777Z,4.07
2022-08-19T04:09:27.194Z,5.45
2022-08-19T04:11:56.686Z,3.92
2022-08-19T04:14:31.146Z,6.00
2022-08-19T04:17:00.627Z,5.10
2022-08-19T04:19:31.004Z,4.43
2022-08-19T04:21:59.643Z,4.70
2022-08-19T04:24:26.677Z,4.05
2022-08-19T04:26:53.987Z,5.55
2022-08-19T04:29:26.361Z,4.85
2022-08-19T04:31:59.453Z,5.07
2022-08-19T04:34:31.292Z,4.80
2022-08-19T04:37:00.075Z,6.90
2022-08-19T04:39:49.912Z,6.10
2022-08-19T04:42:37.765Z,4.90
2022-08-19T04:45:14.137Z,6.88
2022-08-19T04:47:47.616Z,5.55
2022-08-19T04:50:27.506Z,5.55
2022-08-19T04:52:56.282Z,6.55
2022-08-19T04:55:26.261Z,6.65
2022-08-19T04:57:53.361Z,7.05
2022-08-19T05:00:20.347Z,6.53
2022-08-19T05:02:47.280Z,6.40
2022-08-19T05:05:14.963Z,7.32
2022-08-19T05:07:42.063Z,7.45
2022-08-19T05:10:09.578Z,10.10
2022-08-19T05:12:39.018Z,6.63
2022-08-19T05:15:09.330Z,6.70
2022-08-19T05:17:38.890Z,6.70
2022-08-19T05:20:41.304Z,7.20
2022-08-19T05:23:09.209Z,6.78
2022-08-19T05:25:41.301Z,6.35
2022-08-19T05:28:11.040Z,6.40
2022-08-19T05:30:47.208Z,7.50
2022-08-19T05:33:15.036Z,7.45
2022-08-19T05:35:42.056Z,6.05
2022-08-19T05:38:09.252Z,6.78
2022-08-19T05:40:37.037Z,6.60
2022-08-19T05:43:07.865Z,6.50
2022-08-19T05:45:41.036Z,6.97
2022-08-19T05:48:07.805Z,7.65
2022-08-19T05:50:36.707Z,7.28
2022-08-19T05:53:03.489Z,7.28
2022-08-19T05:55:30.233Z,11.90
2022-08-19T05:57:57.186Z,10.50
2022-08-19T06:00:24.887Z,9.88
2022-08-19T06:02:52.150Z,10.07
2022-08-19T06:05:19.164Z,14.60
2022-08-19T06:07:46.306Z,16.58
2022-08-19T06:10:13.387Z,16.05
2022-08-19T06:12:42.224Z,18.50
2022-08-19T06:15:16.589Z,21.35
2022-08-19T06:17:45.384Z,22.80
2022-08-19T06:20:16.023Z,22.23
2022-08-19T06:22:52.337Z,32.55
2022-08-19T06:25:19.551Z,37.80
2022-08-19T06:28:14.015Z,44.88
2022-08-19T06:30:37.881Z,40.20
2022-08-19T06:33:05.655Z,45.50
2022-08-19T06:38:11.076Z,46.45
2022-08-19T06:40:39.415Z,45.30
2022-08-19T06:43:08.593Z,45.72
2022-08-19T06:45:39.726Z,48.70
2022-08-19T06:48:08.307Z,47.55
2022-08-19T06:50:39.479Z,48.08
2022-08-19T06:53:07.975Z,43.45
2022-08-19T06:55:34.747Z,41.40
2022-08-19T06:58:05.050Z,51.83
2022-08-19T07:00:32.429Z,48.83
2022-08-19T07:03:05.978Z,44.72
2022-08-19T07:05:45.466Z,45.83
2022-08-19T07:08:14.712Z,43.75
2022-08-19T07:10:45.787Z,42.67
2022-08-19T07:13:13.119Z,40.97
2022-08-19T07:15:42.430Z,40.97
2022-08-19T07:18:11.693Z,39.45
2022-08-19T07:20:40.164Z,41.60
2022-08-19T07:23:16.160Z,36.22
2022-08-19T07:25:44.475Z,38.95
2022-08-19T07:28:23.950Z,35.67
2022-08-19T07:30:51.609Z,41.20
2022-08-19T07:33:20.201Z,39.92
2022-08-19T07:35:46.954Z,37.70
2022-08-19T07:38:14.313Z,37.55
2022-08-19T07:40:42.140Z,39.20
2022-08-19T07:43:13.548Z,37.85
2022-08-19T07:45:41.020Z,41.80
2022-08-19T07:48:07.775Z,38.45
2022-08-19T07:50:34.584Z,37.70
2022-08-19T07:53:02.308Z,39.55
2022-08-19T07:55:41.654Z,38.90
2022-08-19T07:58:11.990Z,35.25
2022-08-19T08:00:39.237Z,36.50
2022-08-19T08:03:06.129Z,36.47
2022-08-19T08:05:51.895Z,33.72
2022-08-19T08:08:37.235Z,37.25
2022-08-19T08:11:11.931Z,40.53
2022-08-19T08:13:43.092Z,35.60
2022-08-19T08:16:13.971Z,34.60
2022-08-19T08:18:43.163Z,40.38
2022-08-19T08:21:10.220Z,35.42
2022-08-19T08:23:37.213Z,31.70
2022-08-19T08:26:06.687Z,29.65
2022-08-19T08:28:33.540Z,37.25
2022-08-19T08:31:00.680Z,39.08
2022-08-19T08:33:33.945Z,28.77
2022-08-19T08:36:09.870Z,34.65
2022-08-19T08:38:40.213Z,30.35
2022-08-19T08:41:20.789Z,32.58
2022-08-19T08:43:53.885Z,28.27
2022-08-19T08:46:40.901Z,26.13
2022-08-19T08:49:17.373Z,28.90
2022-08-19T08:52:00.167Z,26.33
2022-08-19T08:54:35.530Z,28.63
2022-08-19T08:57:12.309Z,26.35
2022-08-19T08:59:44.045Z,23.98
2022-08-19T09:02:10.861Z,24.73
2022-08-19T09:04:39.992Z,22.88
2022-08-19T09:08:01.009Z,23.30
2022-08-19T09:10:45.111Z,22.33
2022-08-19T09:14:03.132Z,21.10
2022-08-19T09:16:30.840Z,20.00
2022-08-19T09:19:08.296Z,20.35
2022-08-19T09:21:39.411Z,20.85
2022-08-19T09:24:08.097Z,20.20
2022-08-19T09:26:47.804Z,17.17
2022-08-19T09:29:22.508Z,21.25
2022-08-19T09:31:51.164Z,20.42
2022-08-19T09:34:21.113Z,16.58
2022-08-19T09:36:54.076Z,20.33
2022-08-19T09:39:22.592Z,18.38
2022-08-19T09:41:50.696Z,20.92
2022-08-19T09:44:18.966Z,21.75
2022-08-19T09:46:48.156Z,21.25
2022-08-19T09:49:22.451Z,18.05
2022-08-19T09:51:57.003Z,19.65
2022-08-19T09:54:25.443Z,18.80
2022-08-19T09:56:54.573Z,19.58
2022-08-19T09:59:22.501Z,17.17
2022-08-19T10:01:49.250Z,16.42
2022-08-19T10:04:20.563Z,19.92
2022-08-19T10:06:53.484Z,20.15
2022-08-19T10:09:34.129Z,18.40
2022-08-19T10:12:03.689Z,17.20
2022-08-19T10:14:32.102Z,21.90
2022-08-19T10:17:01.184Z,21.73
2022-08-19T10:19:29.159Z,18.52
2022-08-19T10:22:00.192Z,20.45
2022-08-19T10:24:28.483Z,22.15
2022-08-19T10:26:55.802Z,21.30
2022-08-19T10:29:32.915Z,22.38
2022-08-19T10:32:09.343Z,17.70
2022-08-19T10:34:48.497Z,18.38
2022-08-19T10:37:23.953Z,20.92
2022-08-19T10:39:56.202Z,19.02
2022-08-19T10:42:23.091Z,23.00
2022-08-19T10:44:49.810Z,21.55
2022-08-19T10:47:25.606Z,17.92
2022-08-19T10:50:15.157Z,22.35
2022-08-19T10:52:49.885Z,17.20
2022-08-19T10:55:42.401Z,18.50
2022-08-19T10:58:23.396Z,22.33
2022-08-19T11:00:59.298Z,17.77
2022-08-19T11:03:30.323Z,16.88
2022-08-19T11:06:08.189Z,19.17
2022-08-19T11:08:38.389Z,18.33
2022-08-19T11:11:07.890Z,16.60
2022-08-19T11:13:39.415Z,20.50
2022-08-19T11:16:14.716Z,16.70
2022-08-19T11:18:49.607Z,20.58
2022-08-19T11:21:32.617Z,15.18
2022-08-19T11:24:06.825Z,20.00
2022-08-19T11:26:35.129Z,17.10
2022-08-19T11:29:05.195Z,19.25
2022-08-19T11:31:36.680Z,16.13
2022-08-19T11:34:06.721Z,20.52
2022-08-19T11:36:35.342Z,19.48
2022-08-19T11:39:10.678Z,16.40
2022-08-19T11:41:37.768Z,21.25
2022-08-19T11:44:05.500Z,17.55
2022-08-19T11:46:32.681Z,18.92
2022-08-19T11:49:01.547Z,18.38
2022-08-19T11:51:30.159Z,15.85
2022-08-19T11:54:00.245Z,16.13
2022-08-19T11:56:29.178Z,17.27
2022-08-19T11:59:00.132Z,18.95
2022-08-19T12:01:27.504Z,16.05
2022-08-19T12:03:56.852Z,18.20
2022-08-19T12:06:32.665Z,16.30
2022-08-19T12:09:05.631Z,14.13
2022-08-19T12:11:34.576Z,15.05
2022-08-19T12:14:01.877Z,15.25
2022-08-19T12:16:32.860Z,12.77
2022-08-19T12:19:04.703Z,13.38
2022-08-19T12:21:35.835Z,13.35
2022-08-19T12:24:05.738Z,12.00
2022-08-19T12:26:33.713Z,10.20
2022-08-19T12:29:03.801Z,12.40
2022-08-19T12:31:31.051Z,9.93
2022-08-19T12:33:58.510Z,7.20
2022-08-19T12:36:26.797Z,9.05
2022-08-19T12:38:54.036Z,6.15
2022-08-19T12:41:23.254Z,9.75
2022-08-19T12:43:50.821Z,8.63
2022-08-19T12:46:20.488Z,9.25
2022-08-19T12:48:55.217Z,9.65
2022-08-19T12:51:22.553Z,8.07
2022-08-19T12:53:50.847Z,13.30
2022-08-19T12:56:23.267Z,9.23
2022-08-19T12:58:52.956Z,13.40
2022-08-19T13:01:23.022Z,9.00
2022-08-19T13:03:53.445Z,12.93
2022-08-19T13:06:20.519Z,7.72
2022-08-19T13:08:47.738Z,7.72
2022-08-19T13:11:21.823Z,5.55
2022-08-19T13:13:51.727Z,5.30
2022-08-19T13:16:21.065Z,5.75
2022-08-19T13:18:48.862Z,4.40
2022-08-19T13:21:15.771Z,6.68
2022-08-19T13:23:43.434Z,4.72
2022-08-19T13:26:12.648Z,4.93
2022-08-19T13:29:00.386Z,5.25
2022-08-19T13:31:49.431Z,6.28
2022-08-19T13:34:20.086Z,5.40
2022-08-19T13:36:47.508Z,5.57
2022-08-19T13:39:14.345Z,5.30
2022-08-19T13:41:51.740Z,5.72
2022-08-19T13:44:20.290Z,8.40
2022-08-19T13:46:49.553Z,11.20
2022-08-19T13:49:23.966Z,4.57
2022-08-19T13:51:51.039Z,6.70
2022-08-19T13:54:17.856Z,5.35
2022-08-19T13:56:46.819Z,5.28
2022-08-19T13:59:13.886Z,6.00
2022-08-19T14:01:42.066Z,6.65
2022-08-19T14:04:10.233Z,6.65
2022-08-19T14:06:37.289Z,5.88
2022-08-19T14:09:05.524Z,6.88
2022-08-19T14:11:32.381Z,4.07
2022-08-19T14:13:59.225Z,3.90
2022-08-19T14:16:26.188Z,4.65
2022-08-19T14:18:53.864Z,6.38
2022-08-19T14:21:24.650Z,5.13
2022-08-19T14:23:52.139Z,4.30
2022-08-19T14:26:20.875Z,4.70
2022-08-19T14:28:50.287Z,5.20
2022-08-19T14:31:20.222Z,6.18
2022-08-19T14:33:49.097Z,3.40
2022-08-19T14:36:16.314Z,3.00
2022-08-19T14:38:44.060Z,3.42
2022-08-19T14:41:22.568Z,3.78
2022-08-19T14:43:53.306Z,3.72
2022-08-19T14:46:26.008Z,2.33
2022-08-19T14:48:56.359Z,2.42
2022-08-19T14:51:25.166Z,2.30
2022-08-19T14:53:52.893Z,3.58
2022-08-19T14:56:25.376Z,2.20
2022-08-19T14:58:53.398Z,5.65
2022-08-19T15:01:23.872Z,3.10
2022-08-19T15:03:59.777Z,2.90
2022-08-19T15:06:27.177Z,1.95
2022-08-19T15:09:04.191Z,1.42
2022-08-19T15:11:33.317Z,2.60
2022-08-19T15:14:02.252Z,1.30
2022-08-19T15:16:30.190Z,1.30
2022-08-19T15:19:00.593Z,1.63
2022-08-19T15:21:31.340Z,1.33
2022-08-19T15:24:01.707Z,1.65
2022-08-19T15:26:32.424Z,3.22
2022-08-19T15:29:01.357Z,2.13
2022-08-19T15:31:29.874Z,3.08
2022-08-19T15:33:58.422Z,2.42
2022-08-19T15:36:29.080Z,2.72
2022-08-19T15:38:57.408Z,4.03
2022-08-19T15:41:30.958Z,3.72
2022-08-19T15:44:11.624Z,3.40
2022-08-19T15:46:41.818Z,3.35
2022-08-19T15:49:12.618Z,5.72
2022-08-19T15:51:42.913Z,4.43
2022-08-19T15:54:15.038Z,4.72
2022-08-19T15:57:11.243Z,4.53
2022-08-19T15:59:59.992Z,2.72
2022-08-19T16:02:48.645Z,3.50
2022-08-19T16:05:45.341Z,2.58
2022-08-19T16:08:12.396Z,4.43
2022-08-19T16:10:39.907Z,2.75
2022-08-19T16:13:07.228Z,3.28
2022-08-19T16:15:34.149Z,5.15
2022-08-19T16:18:21.093Z,2.83
2022-08-19T16:20:48.449Z,2.63
2022-08-19T16:23:15.493Z,2.05
2022-08-19T16:25:42.334Z,4.10
2022-08-19T16:28:10.438Z,2.47
2022-08-19T16:30:40.624Z,2.50
2022-08-19T16:33:09.099Z,3.33
2022-08-19T16:35:36.506Z,3.53
2022-08-19T16:38:03.347Z,4.50
2022-08-19T16:40:30.203Z,5.15
2022-08-19T16:42:56.957Z,5.35
2022-08-19T16:45:23.798Z,5.22
2022-08-19T16:47:50.729Z,3.10
2022-08-19T16:50:25.409Z,6.60
2022-08-19T16:53:00.344Z,2.80
2022-08-19T16:55:28.309Z,4.30
2022-08-19T16:57:55.258Z,3.72
2022-08-19T17:00:23.492Z,5.38
2022-08-19T17:02:50.226Z,4.72
2022-08-19T17:05:17.229Z,5.82
2022-08-19T17:07:44.533Z,4.30
2022-08-19T17:10:11.521Z,3.30
2022-08-19T17:12:38.286Z,3.92
2022-08-19T17:15:08.719Z,2.60
2022-08-19T17:17:37.201Z,6.38
2022-08-19T17:20:05.980Z,2.65
2022-08-19T17:22:32.797Z,4.68
2022-08-19T17:24:59.523Z,5.15
2022-08-19T17:27:32.105Z,3.90
2022-08-19T17:30:05.538Z,4.95
2022-08-19T17:32:34.813Z,2.75
2022-08-19T17:35:04.645Z,3.90
2022-08-19T17:37:32.045Z,3.47
2022-08-19T17:39:58.882Z,4.03
2022-08-19T17:42:26.374Z,3.35
2022-08-19T17:44:53.145Z,3.38
2022-08-19T17:47:21.106Z,3.55
2022-08-19T17:49:48.341Z,3.70
2022-08-19T17:52:15.081Z,3.30
2022-08-19T17:54:42.269Z,3.88
2022-08-19T17:57:09.565Z,7.15
2022-08-19T17:59:37.481Z,4.93
2022-08-19T18:02:10.014Z,3.83
2022-08-19T18:04:39.404Z,2.92
2022-08-19T18:07:06.420Z,2.15
2022-08-19T18:09:42.210Z,0.50
2022-08-19T18:12:12.703Z,1.50
2022-08-19T18:14:41.226Z,1.30
2022-08-19T18:17:15.146Z,3.22
2022-08-19T18:19:44.158Z,1.38
2022-08-19T18:22:36.262Z,0.60
2022-08-19T18:25:10.137Z,1.02
2022-08-19T18:27:37.568Z,1.60
2022-08-19T18:30:07.797Z,1.13
2022-08-19T18:33:44.424Z,0.82
2022-08-19T18:36:27.882Z,0.70
2022-08-19T18:39:24.236Z,1.55
2022-08-19T18:42:10.286Z,2.78
2022-08-19T18:44:59.893Z,3.90
2022-08-19T18:47:46.049Z,0.70
2022-08-19T18:50:17.926Z,1.45
2022-08-19T18:52:47.584Z,1.27
2022-08-19T18:55:15.782Z,1.40
2022-08-19T18:57:42.682Z,1.30
2022-08-19T19:00:13.068Z,4.00
2022-08-19T19:02:41.209Z,2.83
2022-08-19T19:05:08.821Z,1.05
2022-08-19T19:07:39.739Z,1.33
2022-08-19T19:10:08.005Z,2.28
2022-08-19T19:12:42.650Z,1.10
2022-08-19T19:15:10.267Z,2.58
2022-08-19T19:17:37.351Z,3.30
2022-08-19T19:20:09.164Z,2.53
2022-08-19T19:22:40.491Z,1.98
2022-08-19T19:25:08.405Z,3.35
2022-08-19T19:27:35.507Z,2.95
2022-08-19T19:30:02.602Z,2.25
2022-08-19T19:32:38.772Z,1.92
2022-08-19T19:35:10.550Z,2.08
2022-08-19T19:37:37.369Z,2.60
2022-08-19T19:40:06.004Z,3.97
2022-08-19T19:42:33.040Z,3.78
2022-08-19T19:45:02.119Z,2.40
2022-08-19T19:47:30.958Z,3.63
2022-08-19T19:50:15.097Z,2.72
2022-08-19T19:52:45.788Z,2.35
2022-08-19T19:55:18.454Z,3.50
2022-08-19T19:57:48.865Z,3.08
2022-08-19T20:00:32.869Z,3.03
2022-08-19T20:02:59.713Z,2.85
2022-08-19T20:05:26.684Z,2.47
2022-08-19T20:08:13.576Z,3.72
2022-08-19T20:10:43.304Z,2.83
2022-08-19T20:13:14.072Z,4.38
2022-08-19T20:15:43.341Z,3.58
2022-08-19T20:18:14.231Z,3.55
2022-08-19T20:20:49.901Z,4.68
2022-08-19T20:23:27.878Z,4.57
2022-08-19T20:25:54.728Z,4.97
2022-08-19T20:28:22.973Z,5.40
2022-08-19T20:30:50.030Z,5.45
2022-08-19T20:33:17.198Z,5.88
2022-08-19T20:35:45.608Z,5.40
2022-08-19T20:38:12.994Z,7.10
2022-08-19T20:40:44.085Z,5.70
2022-08-19T20:43:15.420Z,5.13
2022-08-19T20:45:42.375Z,4.68
2022-08-19T20:48:12.167Z,6.50
2022-08-19T20:50:41.289Z,6.63
2022-08-19T20:53:20.407Z,5.43
2022-08-19T20:56:08.413Z,7.75
2022-08-19T20:58:42.377Z,6.25
2022-08-19T21:01:10.654Z,7.65
2022-08-19T21:03:43.981Z,6.28
2022-08-19T21:06:14.062Z,8.70
2022-08-19T21:08:42.091Z,8.75
2022-08-19T21:11:11.022Z,5.18
2022-08-19T21:13:37.938Z,5.05
2022-08-19T21:16:09.422Z,6.88
2022-08-19T21:18:36.649Z,7.00
2022-08-19T21:21:04.441Z,6.07
2022-08-19T21:23:32.117Z,6.70
2022-08-19T21:26:00.608Z,6.43
2022-08-19T21:28:35.171Z,6.25
2022-08-19T21:31:07.095Z,7.13
2022-08-19T21:33:34.173Z,7.28
2022-08-19T21:36:00.970Z,5.10
2022-08-19T21:38:28.067Z,4.78
2022-08-19T21:40:56.593Z,8.43
2022-08-19T21:43:24.699Z,6.53
2022-08-19T21:45:51.429Z,5.15
2022-08-19T21:48:19.611Z,7.90
2022-08-19T21:50:48.703Z,7.72
2022-08-19T21:53:22.910Z,7.90
2022-08-19T21:55:53.791Z,8.63
2022-08-19T21:58:28.233Z,6.88
2022-08-19T22:00:58.623Z,5.15
2022-08-19T22:03:26.725Z,7.53
2022-08-19T22:05:53.860Z,9.65
2022-08-19T22:08:20.618Z,7.15
2022-08-19T22:10:50.053Z,9.40
2022-08-19T22:13:25.633Z,7.28
2022-08-19T22:15:52.393Z,9.30
2022-08-19T22:18:19.179Z,5.22
2022-08-19T22:20:46.761Z,9.30
2022-08-19T22:23:14.036Z,10.80
2022-08-19T22:25:45.975Z,7.68
2022-08-19T22:28:19.126Z,10.93
2022-08-19T22:30:55.882Z,7.78
2022-08-19T22:33:25.610Z,7.47
2022-08-19T22:35:53.761Z,8.35
2022-08-19T22:38:20.479Z,8.00
2022-08-19T22:40:49.763Z,5.45
2022-08-19T22:43:29.970Z,8.02
2022-08-19T22:45:58.681Z,6.88
2022-08-19T22:48:30.689Z,6.85
2022-08-19T22:51:17.918Z,7.40
2022-08-19T22:53:47.361Z,6.47
2022-08-19T22:56:18.415Z,7.30
2022-08-19T22:58:46.820Z,6.50
2022-08-19T23:01:27.384Z,6.53
2022-08-19T23:03:59.401Z,7.00
2022-08-19T23:06:33.038Z,8.18
2022-08-19T23:09:00.269Z,6.93
2022-08-19T23:11:27.060Z,8.40
2022-08-19T23:13:53.781Z,6.43
2022-08-19T23:16:20.652Z,5.38
2022-08-19T23:18:48.095Z,7.03
2022-08-19T23:21:16.428Z,7.10
2022-08-19T23:23:44.074Z,7.13
2022-08-19T23:26:11.879Z,5.65
2022-08-19T23:28:57.933Z,5.72
2022-08-19T23:31:33.366Z,6.43
2022-08-19T23:34:00.411Z,6.40
2022-08-19T23:36:27.219Z,7.72
2022-08-19T23:38:54.648Z,5.65
2022-08-19T23:41:23.524Z,7.80
2022-08-19T23:43:50.818Z,7.22
2022-08-19T23:46:28.074Z,6.65
2022-08-19T23:48:58.846Z,6.38
2022-08-19T23:51:26.355Z,6.45
2022-08-19T23:53:53.244Z,7.47
2022-08-19T23:56:19.981Z,6.47
2022-08-19T23:58:48.940Z,7.53
